createdAt,value
2018-04-08T00:02:22.544Z,58.40
2018-04-08T00:04:51.994Z,58.90
2018-04-08T00:07:21.244Z,59.00
2018-04-08T00:09:50.802Z,59.00
2018-04-08T00:12:20.557Z,59.20
2018-04-08T00:14:50.221Z,59.30
2018-04-08T00:17:19.767Z,59.50
2018-04-08T00:19:49.437Z,59.20
2018-04-08T00:22:18.693Z,59.50
2018-04-08T00:24:48.240Z,60.00
2018-04-08T00:27:17.472Z,59.20
2018-04-08T00:29:47.328Z,59.30
2018-04-08T00:32:16.567Z,59.40
2018-04-08T00:34:46.881Z,59.50
2018-04-08T00:37:16.120Z,59.40
2018-04-08T00:39:45.482Z,59.60
2018-04-08T00:42:15.022Z,59.60
2018-04-08T00:44:44.497Z,59.90
2018-04-08T00:47:13.733Z,59.90
2018-04-08T00:49:43.209Z,60.10
2018-04-08T00:52:12.699Z,60.30
2018-04-08T00:54:42.221Z,60.40
2018-04-08T00:57:11.654Z,60.40
2018-04-08T00:59:41.066Z,60.60
2018-04-08T01:02:11.029Z,60.70
2018-04-08T01:04:40.287Z,60.80
2018-04-08T01:07:10.570Z,61.40
2018-04-08T01:09:40.924Z,61.30
2018-04-08T01:12:10.405Z,61.20
2018-04-08T01:14:40.297Z,61.40
2018-04-08T01:17:09.834Z,61.80
2018-04-08T01:19:39.842Z,62.10
2018-04-08T01:22:09.189Z,62.10
2018-04-08T01:24:38.548Z,62.10
2018-04-08T01:27:08.663Z,62.80
2018-04-08T01:29:37.909Z,63.30
2018-04-08T01:32:07.267Z,64.60
2018-04-08T01:34:36.986Z,63.60
2018-04-08T01:37:07.105Z,63.30
2018-04-08T01:39:37.320Z,63.00
2018-04-08T01:42:06.720Z,63.00
2018-04-08T01:44:35.964Z,63.30
2018-04-08T01:47:06.138Z,63.50
2018-04-08T01:49:35.784Z,63.80
2018-04-08T02:03:58.789Z,65.60
2018-04-08T02:06:28.024Z,65.50
2018-04-08T02:08:57.388Z,65.70
2018-04-08T02:11:26.687Z,65.60
2018-04-08T02:13:56.003Z,65.80
2018-04-08T02:16:26.023Z,66.40
2018-04-08T02:18:55.437Z,66.30
2018-04-08T02:21:25.440Z,67.00
2018-04-08T02:23:54.827Z,67.00
2018-04-08T02:26:24.077Z,66.60
2018-04-08T02:28:53.639Z,67.00
2018-04-08T02:31:22.889Z,67.00
2018-04-08T02:33:52.444Z,67.10
2018-04-08T02:36:21.682Z,67.10
2018-04-08T02:38:51.113Z,67.20
2018-04-08T02:41:20.317Z,67.30
2018-04-08T02:43:49.774Z,68.50
2018-04-08T02:46:19.105Z,67.80
2018-04-08T02:48:48.508Z,67.60
2018-04-08T02:51:18.246Z,69.30
2018-04-08T02:53:47.675Z,69.70
2018-04-08T02:56:16.903Z,69.70
2018-04-08T02:58:46.285Z,68.20
2018-04-08T03:01:16.292Z,68.10
2018-04-08T03:03:45.692Z,69.10
2018-04-08T03:06:14.930Z,68.60
2018-04-08T03:08:44.305Z,68.50
2018-04-08T03:11:14.312Z,70.90
2018-04-08T03:13:43.716Z,69.90
2018-04-08T03:16:12.986Z,68.70
2018-04-08T03:18:43.760Z,68.70
2018-04-08T03:21:14.281Z,69.90
2018-04-08T03:23:43.525Z,70.40
2018-04-08T03:26:13.092Z,70.20
2018-04-08T03:28:42.537Z,70.70
2018-04-08T03:31:11.895Z,71.10
2018-04-08T03:33:41.128Z,70.90
2018-04-08T03:36:10.500Z,71.10
2018-04-08T03:38:39.859Z,71.00
2018-04-08T03:41:09.917Z,70.90
2018-04-08T03:43:39.170Z,70.80
2018-04-08T03:46:08.620Z,71.30
2018-04-08T03:48:39.367Z,72.00
2018-04-08T03:51:08.768Z,72.00
2018-04-08T03:53:38.006Z,72.00
2018-04-08T03:56:08.187Z,72.50
2018-04-08T03:58:37.548Z,72.50
2018-04-08T04:01:06.992Z,72.90
2018-04-08T04:03:36.223Z,73.20
2018-04-08T04:06:06.000Z,73.60
2018-04-08T04:08:35.245Z,74.10
2018-04-08T04:11:04.607Z,73.80
2018-04-08T04:13:33.864Z,74.10
2018-04-08T04:16:03.437Z,73.80
2018-04-08T04:18:50.992Z,74.40
2018-04-08T04:21:38.060Z,74.30
2018-04-08T04:24:24.940Z,74.50
2018-04-08T04:26:54.386Z,74.80
2018-04-08T04:29:23.634Z,75.00
2018-04-08T04:31:53.080Z,75.10
2018-04-08T04:34:22.335Z,74.80
2018-04-08T04:36:51.700Z,75.10
2018-04-08T04:39:21.075Z,75.10
2018-04-08T04:41:50.493Z,75.30
2018-04-08T04:44:19.729Z,74.80
2018-04-08T04:46:49.872Z,74.70
2018-04-08T04:49:19.109Z,74.50
2018-04-08T04:51:49.333Z,74.70
2018-04-08T04:54:18.809Z,74.60
2018-04-08T04:56:48.052Z,75.00
2018-04-08T04:59:17.820Z,74.60
2018-04-08T05:01:47.100Z,75.00
2018-04-08T05:04:16.860Z,74.50
2018-04-08T05:06:46.896Z,74.50
2018-04-08T05:09:16.277Z,74.00
2018-04-08T05:11:46.176Z,73.90
2018-04-08T05:14:15.725Z,73.90
2018-04-08T05:16:45.716Z,73.80
2018-04-08T05:19:15.121Z,73.70
2018-04-08T05:21:44.479Z,73.80
2018-04-08T05:24:13.943Z,73.80
2018-04-08T05:26:43.171Z,71.70
2018-04-08T05:29:12.533Z,71.20
2018-04-08T05:31:42.699Z,70.60
2018-04-08T05:34:12.158Z,69.80
2018-04-08T05:36:41.391Z,68.40
2018-04-08T05:39:10.960Z,66.20
2018-04-08T05:41:40.708Z,63.40
2018-04-08T05:44:10.193Z,62.40
2018-04-08T05:46:39.427Z,61.40
2018-04-08T05:49:08.784Z,60.90
2018-04-08T05:51:39.126Z,58.60
2018-04-08T05:54:09.428Z,57.20
2018-04-08T05:56:38.812Z,57.10
2018-04-08T05:59:08.242Z,57.10
2018-04-08T06:01:37.476Z,54.90
2018-04-08T06:04:07.048Z,53.90
2018-04-08T06:06:36.906Z,52.60
2018-04-08T06:09:06.380Z,51.30
2018-04-08T06:11:36.487Z,49.50
2018-04-08T06:14:06.492Z,49.90
2018-04-08T06:16:35.905Z,49.10
2018-04-08T06:19:05.920Z,46.60
2018-04-08T06:21:35.323Z,46.50
2018-04-08T06:24:05.254Z,46.10
2018-04-08T06:26:35.408Z,44.70
2018-04-08T06:29:04.658Z,44.70
2018-04-08T06:31:34.084Z,44.30
2018-04-08T06:34:04.069Z,45.50
2018-04-08T06:36:33.424Z,45.50
2018-04-08T06:39:02.727Z,46.30
2018-04-08T06:41:32.204Z,46.50
2018-04-08T06:44:02.213Z,46.60
2018-04-08T06:46:31.612Z,46.70
2018-04-08T06:49:01.654Z,44.70
2018-04-08T06:51:31.041Z,44.60
2018-04-08T06:54:01.069Z,44.20
2018-04-08T06:56:30.657Z,44.10
2018-04-08T06:58:59.999Z,44.20
2018-04-08T07:01:29.397Z,44.10
2018-04-08T07:03:58.645Z,43.90
2018-04-08T07:06:28.077Z,42.90
2018-04-08T07:08:57.506Z,43.10
2018-04-08T07:11:26.904Z,42.60
2018-04-08T07:13:56.216Z,42.80
2018-04-08T07:16:26.309Z,41.90
2018-04-08T07:18:55.574Z,43.60
2018-04-08T07:21:25.112Z,44.20
2018-04-08T07:23:54.350Z,44.60
2018-04-08T07:26:24.730Z,44.50
2018-04-08T07:28:54.253Z,43.70
2018-04-08T07:31:24.253Z,41.70
2018-04-08T07:33:55.312Z,41.70
2018-04-08T07:36:24.628Z,42.30
2018-04-08T07:38:54.101Z,42.20
2018-04-08T07:41:23.665Z,42.70
2018-04-08T07:43:53.207Z,43.30
2018-04-08T07:46:22.467Z,44.40
2018-04-08T07:48:52.012Z,44.10
2018-04-08T07:51:21.268Z,45.00
2018-04-08T07:53:50.624Z,46.80
2018-04-08T07:56:19.864Z,48.30
2018-04-08T07:58:49.427Z,49.50
2018-04-08T08:01:19.445Z,52.00
2018-04-08T08:03:48.839Z,52.00
2018-04-08T08:06:18.418Z,52.20
2018-04-08T08:08:47.860Z,52.50
2018-04-08T08:11:17.104Z,53.00
2018-04-08T08:13:46.478Z,52.90
2018-04-08T08:16:16.484Z,53.10
2018-04-08T08:18:45.884Z,53.00
2018-04-08T08:21:15.134Z,53.20
2018-04-08T08:23:44.484Z,52.10
2018-04-08T08:26:13.712Z,52.20
2018-04-08T08:28:43.115Z,52.50
2018-04-08T08:31:12.865Z,53.30
2018-04-08T08:33:42.305Z,53.30
2018-04-08T08:36:11.567Z,52.90
2018-04-08T08:38:41.104Z,52.40
2018-04-08T08:41:10.357Z,53.50
2018-04-08T08:43:39.759Z,53.70
2018-04-08T08:46:08.964Z,53.60
2018-04-08T08:48:38.316Z,53.70
2018-04-08T08:51:08.228Z,53.50
2018-04-08T08:53:37.473Z,53.40
2018-04-08T08:56:07.450Z,52.70
2018-04-08T08:58:37.485Z,53.50
2018-04-08T09:01:06.860Z,52.80
2018-04-08T09:03:36.103Z,52.40
2018-04-08T09:06:05.489Z,52.30
2018-04-08T09:08:35.527Z,52.50
2018-04-08T09:11:04.895Z,52.50
2018-04-08T09:13:34.900Z,52.90
2018-04-08T09:16:04.308Z,52.90
2018-04-08T09:18:33.688Z,52.30
2018-04-08T09:24:06.344Z,51.70
2018-04-08T09:26:36.371Z,51.20
2018-04-08T09:29:05.641Z,51.20
2018-04-08T09:31:35.155Z,50.20
2018-04-08T09:34:05.169Z,51.60
2018-04-08T09:36:34.561Z,51.60
2018-04-08T09:39:04.780Z,51.10
2018-04-08T09:41:34.148Z,51.10
2018-04-08T09:44:03.392Z,52.00
2018-04-08T09:46:32.746Z,51.30
2018-04-08T09:49:02.164Z,51.50
2018-04-08T09:51:32.832Z,51.10
2018-04-08T09:54:02.840Z,51.30
2018-04-08T09:56:32.244Z,51.20
2018-04-08T09:59:02.264Z,50.30
2018-04-08T10:01:37.196Z,50.30
2018-04-08T10:04:07.538Z,50.20
2018-04-08T10:06:37.658Z,48.30
2018-04-08T10:09:08.499Z,48.40
2018-04-08T10:11:37.880Z,48.40
2018-04-08T10:14:07.891Z,48.80
2018-04-08T10:16:37.504Z,48.80
2018-04-08T10:19:07.537Z,47.20
2018-04-08T10:21:36.934Z,47.20
2018-04-08T10:24:06.949Z,46.60
2018-04-08T10:26:36.355Z,46.50
2018-04-08T10:29:06.441Z,46.30
2018-04-08T10:31:35.770Z,46.20
2018-04-08T10:34:05.789Z,44.70
2018-04-08T10:36:36.241Z,44.30
2018-04-08T10:39:05.616Z,44.20
2018-04-08T10:41:36.474Z,43.10
2018-04-08T10:44:06.796Z,42.10
2018-04-08T10:46:36.799Z,41.10
2018-04-08T10:49:06.173Z,40.90
2018-04-08T10:51:35.429Z,40.80
2018-04-08T10:54:05.722Z,40.60
2018-04-08T10:56:35.197Z,40.50
2018-04-08T10:59:04.552Z,40.10
2018-04-08T11:01:34.584Z,39.60
2018-04-08T11:04:04.578Z,39.50
2018-04-08T11:06:34.604Z,39.80
2018-04-08T11:09:03.998Z,39.70
2018-04-08T11:11:34.444Z,40.40
2018-04-08T11:14:04.240Z,39.70
2018-04-08T11:16:34.252Z,39.50
2018-04-08T11:19:03.880Z,39.40
2018-04-08T11:21:33.786Z,38.10
2018-04-08T11:24:03.272Z,38.00
2018-04-08T11:26:32.956Z,38.90
2018-04-08T11:29:02.488Z,38.30
2018-04-08T11:31:31.773Z,38.20
2018-04-08T11:34:02.286Z,38.10
2018-04-08T11:36:31.542Z,38.60
2018-04-08T11:39:01.124Z,38.30
2018-04-08T11:41:30.375Z,38.30
2018-04-08T11:44:00.344Z,37.80
2018-04-08T11:46:29.847Z,37.70
2018-04-08T11:48:59.204Z,37.00
2018-04-08T11:51:28.865Z,36.70
2018-04-08T11:53:58.556Z,36.70
2018-04-08T11:56:28.078Z,36.80
2018-04-08T11:58:57.775Z,36.70
2018-04-08T12:01:27.909Z,36.30
2018-04-08T12:03:57.155Z,36.20
2018-04-08T12:06:26.614Z,35.70
2018-04-08T12:08:57.245Z,35.80
2018-04-08T12:11:26.744Z,35.80
2018-04-08T12:13:55.992Z,36.40
2018-04-08T12:16:25.347Z,35.90
2018-04-08T12:18:54.588Z,36.20
2018-04-08T12:21:23.964Z,36.10
2018-04-08T12:23:53.973Z,35.50
2018-04-08T12:26:24.562Z,35.50
2018-04-08T12:28:55.200Z,35.30
2018-04-08T12:31:25.652Z,36.30
2018-04-08T12:33:54.889Z,34.80
2018-04-08T12:36:24.261Z,35.50
2018-04-08T12:38:54.156Z,35.70
2018-04-08T12:41:23.681Z,35.30
2018-04-08T12:43:53.227Z,34.90
2018-04-08T12:46:22.706Z,34.60
2018-04-08T12:48:51.936Z,34.90
2018-04-08T12:51:21.913Z,34.80
2018-04-08T12:53:51.235Z,34.80
2018-04-08T12:56:21.200Z,34.60
2018-04-08T12:58:50.451Z,34.80
2018-04-08T13:01:20.342Z,34.20
2018-04-08T13:03:49.590Z,34.30
2018-04-08T13:06:18.833Z,34.40
2018-04-08T13:08:48.249Z,34.70
2018-04-08T13:11:17.501Z,34.10
2018-04-08T13:13:47.047Z,34.30
2018-04-08T13:16:16.812Z,34.30
2018-04-08T13:18:47.012Z,34.20
2018-04-08T13:21:16.936Z,34.20
2018-04-08T13:23:46.310Z,34.10
2018-04-08T13:26:16.251Z,34.10
2018-04-08T13:28:45.725Z,34.00
2018-04-08T13:31:14.979Z,34.70
2018-04-08T13:33:44.531Z,33.40
2018-04-08T13:36:14.018Z,33.00
2018-04-08T13:38:43.552Z,32.70
2018-04-08T13:41:13.563Z,32.70
2018-04-08T13:43:43.786Z,32.60
2018-04-08T13:46:13.015Z,32.60
2018-04-08T13:48:42.592Z,32.30
2018-04-08T13:51:12.376Z,32.50
2018-04-08T13:53:41.812Z,32.90
2018-04-08T13:56:11.048Z,32.50
2018-04-08T13:58:40.816Z,32.70
2018-04-08T14:01:10.070Z,32.70
2018-04-08T14:03:39.405Z,33.20
2018-04-08T14:06:08.747Z,33.10
2018-04-08T14:08:39.865Z,32.60
2018-04-08T14:11:09.107Z,32.50
2018-04-08T14:13:38.356Z,33.20
2018-04-08T14:16:07.971Z,33.20
2018-04-08T14:18:37.424Z,32.70
2018-04-08T14:21:06.794Z,33.40
2018-04-08T14:23:36.924Z,32.90
2018-04-08T14:26:07.224Z,33.30
2018-04-08T14:28:37.189Z,33.20
2018-04-08T14:31:06.657Z,33.60
2018-04-08T14:33:36.676Z,33.50
2018-04-08T14:36:06.075Z,33.50
2018-04-08T14:38:36.083Z,32.50
2018-04-08T14:41:05.487Z,32.50
2018-04-08T14:43:35.060Z,33.20
2018-04-08T14:46:04.821Z,33.50
2018-04-08T14:48:34.051Z,32.70
2018-04-08T14:51:04.353Z,33.80
2018-04-08T14:53:34.366Z,33.40
2018-04-08T14:56:03.758Z,33.40
2018-04-08T14:58:33.036Z,33.80
2018-04-08T15:01:02.572Z,33.70
2018-04-08T15:03:31.986Z,34.10
2018-04-08T15:06:01.364Z,34.10
2018-04-08T15:08:30.603Z,34.80
2018-04-08T15:11:00.588Z,34.70
2018-04-08T15:13:29.856Z,36.10
2018-04-08T15:15:59.393Z,36.00
2018-04-08T15:18:28.653Z,36.20
2018-04-08T15:20:58.867Z,36.40
2018-04-08T15:23:28.134Z,36.70
2018-04-08T15:25:58.842Z,37.60
2018-04-08T15:28:28.358Z,37.50
2018-04-08T15:30:57.964Z,37.60
2018-04-08T15:33:27.368Z,37.50
2018-04-08T15:35:57.378Z,38.40
2018-04-08T15:38:26.783Z,38.40
2018-04-08T15:40:56.020Z,37.70
2018-04-08T15:43:25.411Z,37.80
2018-04-08T15:45:55.417Z,38.60
2018-04-08T15:48:24.831Z,38.50
2018-04-08T15:50:54.841Z,38.90
2018-04-08T15:53:24.874Z,38.90
2018-04-08T15:55:54.897Z,39.30
2018-04-08T15:58:24.266Z,39.20
2018-04-08T16:00:53.682Z,39.70
2018-04-08T16:03:23.890Z,39.80
2018-04-08T16:05:53.128Z,40.40
2018-04-08T16:08:22.717Z,40.60
2018-04-08T16:10:52.709Z,41.10
2018-04-08T16:13:22.116Z,41.10
2018-04-08T16:15:52.257Z,41.70
2018-04-08T16:18:22.383Z,42.10
2018-04-08T16:20:51.640Z,42.10
2018-04-08T16:23:20.887Z,42.10
2018-04-08T16:25:50.266Z,42.50
2018-04-08T16:28:19.563Z,42.70
2018-04-08T16:30:49.068Z,42.90
2018-04-08T16:33:19.002Z,43.30
2018-04-08T16:35:49.104Z,43.60
2018-04-08T16:38:18.768Z,43.60
2018-04-08T16:40:48.113Z,43.90
2018-04-08T16:43:17.852Z,44.20
2018-04-08T16:45:48.153Z,44.50
2018-04-08T16:48:17.388Z,44.50
2018-04-08T16:50:46.756Z,44.90
2018-04-08T16:53:16.325Z,44.70
2018-04-08T16:55:45.765Z,44.70
2018-04-08T16:58:15.629Z,44.90
2018-04-08T17:00:44.980Z,44.90
2018-04-08T17:03:14.209Z,45.00
2018-04-08T17:05:43.606Z,45.20
2018-04-08T17:08:14.920Z,45.50
2018-04-08T17:10:44.989Z,45.50
2018-04-08T17:13:14.225Z,45.80
2018-04-08T17:15:44.889Z,45.90
2018-04-08T17:18:14.896Z,46.10
2018-04-08T17:20:44.335Z,46.00
2018-04-08T17:23:14.452Z,46.50
2018-04-08T17:25:43.984Z,46.40
2018-04-08T17:28:14.443Z,47.10
2018-04-08T17:30:43.777Z,47.00
2018-04-08T17:33:14.096Z,47.10
2018-04-08T17:35:43.332Z,47.10
2018-04-08T17:38:12.712Z,47.50
2018-04-08T17:40:42.975Z,47.80
2018-04-08T17:43:13.133Z,47.80
2018-04-08T17:45:44.264Z,48.10
2018-04-08T17:48:13.785Z,48.20
2018-04-08T17:50:43.019Z,48.30
2018-04-08T17:53:12.380Z,49.00
2018-04-08T17:55:41.695Z,49.50
2018-04-08T17:58:11.192Z,50.20
2018-04-08T18:00:40.617Z,50.40
2018-04-08T18:03:10.439Z,51.40
2018-04-08T18:05:39.826Z,51.70
2018-04-08T18:08:09.215Z,52.70
2018-04-08T18:10:38.455Z,53.10
2018-04-08T18:13:08.020Z,53.70
2018-04-08T18:15:38.055Z,54.60
2018-04-08T18:18:07.440Z,54.60
2018-04-08T18:20:36.689Z,55.00
2018-04-08T18:23:06.974Z,55.10
2018-04-08T18:25:37.736Z,55.50
2018-04-08T18:28:07.825Z,55.70
2018-04-08T18:30:38.815Z,55.50
2018-04-08T18:33:08.270Z,55.50
2018-04-08T18:35:38.309Z,54.80
2018-04-08T18:38:07.610Z,54.70
2018-04-08T18:40:36.995Z,54.30
2018-04-08T18:43:07.771Z,54.20
2018-04-08T18:45:37.100Z,54.20
2018-04-08T18:48:06.340Z,54.30
2018-04-08T18:50:36.340Z,53.70
2018-04-08T18:53:06.352Z,52.80
2018-04-08T18:55:35.771Z,52.80
2018-04-08T18:58:05.886Z,52.20
2018-04-08T19:00:36.415Z,52.60
2018-04-08T19:03:05.655Z,52.10
2018-04-08T19:05:35.425Z,52.40
2018-04-08T19:08:04.668Z,52.60
2018-04-08T19:10:34.029Z,52.60
2018-04-08T19:13:04.235Z,53.00
2018-04-08T19:15:33.575Z,53.20
2018-04-08T19:18:03.252Z,53.10
2018-04-08T19:20:33.201Z,53.10
2018-04-08T19:23:02.672Z,53.40
2018-04-08T19:25:32.088Z,53.60
2018-04-08T19:28:02.413Z,53.40
2018-04-08T19:30:32.736Z,54.20
2018-04-08T19:33:01.985Z,53.60
2018-04-08T19:35:31.344Z,53.50
2018-04-08T19:38:00.580Z,53.60
2018-04-08T19:40:29.936Z,53.90
2018-04-08T19:42:59.209Z,53.80
2018-04-08T19:45:28.715Z,53.60
2018-04-08T19:47:58.772Z,53.90
2018-04-08T19:50:28.167Z,54.10
2018-04-08T19:52:57.673Z,54.20
2018-04-08T19:55:26.916Z,54.90
2018-04-08T19:57:56.295Z,54.30
2018-04-08T20:00:26.309Z,54.50
2018-04-08T20:02:55.636Z,54.50
2018-04-08T20:05:25.534Z,54.90
2018-04-08T20:07:55.528Z,55.10
2018-04-08T20:10:24.767Z,55.20
2018-04-08T20:12:54.144Z,55.50
2018-04-08T20:15:24.151Z,55.80
2018-04-08T20:17:53.548Z,55.70
2018-04-08T20:20:23.290Z,56.00
2018-04-08T20:22:53.474Z,56.10
2018-04-08T20:25:23.159Z,56.10
2018-04-08T20:27:53.464Z,56.10
2018-04-08T20:30:22.715Z,56.40
2018-04-08T20:32:52.881Z,56.60
2018-04-08T20:35:22.288Z,57.00
2018-04-08T20:37:51.644Z,57.00
2018-04-08T20:40:21.072Z,57.00
2018-04-08T20:42:50.652Z,57.30
2018-04-08T20:45:19.996Z,57.30
2018-04-08T20:47:49.459Z,57.20
2018-04-08T20:50:18.717Z,57.20
2018-04-08T20:52:48.270Z,57.40
2018-04-08T20:55:17.784Z,57.40
2018-04-08T20:57:48.311Z,57.00
2018-04-08T21:00:17.569Z,56.90
2018-04-08T21:02:46.833Z,56.90
2018-04-08T21:05:16.413Z,57.10
2018-04-08T21:07:46.549Z,57.10
2018-04-08T21:10:16.860Z,57.40
2018-04-08T21:12:46.882Z,57.30
2018-04-08T21:15:16.276Z,57.70
2018-04-08T21:17:45.523Z,57.70
2018-04-08T21:20:14.890Z,57.60
2018-04-08T21:22:44.124Z,57.70
2018-04-08T21:25:13.587Z,57.60
2018-04-08T21:27:43.468Z,57.90
2018-04-08T21:30:13.030Z,57.70
2018-04-08T21:32:42.667Z,57.80
2018-04-08T21:35:12.431Z,58.20
2018-04-08T21:37:41.667Z,58.20
2018-04-08T21:40:11.851Z,58.20
2018-04-08T21:42:41.864Z,58.90
2018-04-08T21:45:11.272Z,58.20
2018-04-08T21:47:41.315Z,58.20
2018-04-08T21:50:10.695Z,58.60
2018-04-08T21:52:39.933Z,58.80
2018-04-08T21:55:09.301Z,58.60
2018-04-08T21:57:39.691Z,58.90
2018-04-08T22:00:09.130Z,58.90
2018-04-08T22:02:38.370Z,58.80
2018-04-08T22:05:08.346Z,59.00
2018-04-08T22:07:37.628Z,59.10
2018-04-08T22:10:07.143Z,59.70
2018-04-08T22:12:36.432Z,59.10
2018-04-08T22:15:06.564Z,59.30
2018-04-08T22:17:36.093Z,59.20
2018-04-08T22:20:06.292Z,59.30
2018-04-08T22:22:35.694Z,59.20
2018-04-08T22:25:04.929Z,59.70
2018-04-08T22:27:34.288Z,59.80
2018-04-08T22:30:03.524Z,59.90
2018-04-08T22:32:33.107Z,59.80
2018-04-08T22:35:02.788Z,60.20
2018-04-08T22:37:32.323Z,60.40
2018-04-08T22:40:01.697Z,61.00
2018-04-08T22:42:31.133Z,61.20
2018-04-08T22:45:00.368Z,61.50
2018-04-08T22:47:29.736Z,61.70
2018-04-08T22:49:59.566Z,61.80
2018-04-08T22:52:28.953Z,62.40
2018-04-08T22:54:59.376Z,62.30
2018-04-08T22:57:29.412Z,62.30
2018-04-08T22:59:59.437Z,62.70
2018-04-08T23:02:28.812Z,62.60
2018-04-08T23:04:58.752Z,62.50
2018-04-08T23:07:28.876Z,62.30
2018-04-08T23:09:58.880Z,62.50
2018-04-08T23:12:28.277Z,62.50
2018-04-08T23:14:58.668Z,62.40
2018-04-08T23:17:28.105Z,62.80
2018-04-08T23:19:57.344Z,62.70
2018-04-08T23:22:26.909Z,62.70
2018-04-08T23:24:56.612Z,62.60
2018-04-08T23:27:26.125Z,63.40
2018-04-08T23:29:55.693Z,62.90
2018-04-08T23:32:25.471Z,62.80
2018-04-08T23:34:54.852Z,63.10
2018-04-08T23:37:24.088Z,63.00
2018-04-08T23:39:54.069Z,63.10
2018-04-08T23:42:23.673Z,63.50
2018-04-08T23:44:53.073Z,63.70
2018-04-08T23:47:23.616Z,63.50
2018-04-08T23:49:53.746Z,63.50
2018-04-08T23:52:23.747Z,63.50
2018-04-08T23:54:53.965Z,63.70
2018-04-08T23:57:23.512Z,63.70
2018-04-08T23:59:53.382Z,63.60
